Дата Пункты Температура Давл., мм. Влажн., % Ветер Погодные явления
Воздуха Воды Направл. Скорость
16.09.19 03:00 Одесса 24.0 21.0 757 50 Пд 4 15 ГОДИН
16.09.19 12:00 Одесса 24.0 20.0 759 38 Пд-З 2 12 ГОДИН
16.09.19 09:00 Одесса 20.0 20.0 759 51 З 3 09 ГОДИН
16.09.19 06:00 Одесса 17.0 21.0 760 59 З 3 06 ГОДИН
16.09.19 03:00 Одесса 16.0 21.0 761 61 З 3 03 ГОДИНИ
15.09.19 09:00 Одесса 18.0 21.0 763 45 Пд-З 3 21 ГОДИНУ
15.09.19 06:00 Одесса 20.0 21.0 764 39 Пд 2 18 ГОДИН
15.09.19 03:00 Одесса 22.0 21.0 765 33 С 2 15 ГОДИН
15.09.19 12:00 Одесса 20.0 20.0 766 33 С 2 12 ГОДИН
15.09.19 09:00 Одесса 17.0 20.0 767 44 Пн-З 1 09 ГОДИН
15.09.19 06:00 Одесса 13.0 21.0 766 51 Пн-З 1 06 ГОДИН
15.09.19 03:00 Одесса 15.0 21.0 766 48 Пн-З 2 03 ГОДИНИ
14.09.19 09:00 Одесса 21.0 21.0 764 41 Пн-З 3 21 ГОДИНУ
14.09.19 06:00 Одесса 24.0 21.0 763 42 Пн-З 2 18 ГОДИН
14.09.19 03:00 Одесса 28.0 21.0 763 30 Пн-З 2 15 ГОДИН
14.09.19 12:00 Одесса 27.0 21.0 763 32 Пн-З 1 12 ГОДИН
14.09.19 09:00 Одесса 22.0 21.0 763 42 Пн-З 2 09 ГОДИН
14.09.19 06:00 Одесса 19.0 21.0 763 45 Пн-З 2 06 ГОДИН
14.09.19 03:00 Одесса 19.0 21.0 763 46 З 2 03 ГОДИНИ
13.09.19 09:00 Одесса 21.0 21.0 764 43 З 2 21 ГОДИНУ
Количество строк
1 2 3 4 5 6 7 8 9 10
Page 1 of 530